sensor_id;sensor_type;location;lat;lon;timestamp;P1;durP1;ratioP1;P2;durP2;ratioP2
53309;SDS011;39197;53.200;5.792;2024-02-04T00:00:47;17.48;;;2.55;;
53309;SDS011;39197;53.200;5.792;2024-02-04T00:03:13;22.92;;;6.07;;
53309;SDS011;39197;53.200;5.792;2024-02-04T00:05:39;26.92;;;3.03;;
53309;SDS011;39197;53.200;5.792;2024-02-04T00:08:05;22.85;;;3.53;;
53309;SDS011;39197;53.200;5.792;2024-02-04T00:10:31;23.33;;;4.30;;
53309;SDS011;39197;53.200;5.792;2024-02-04T00:12:58;33.83;;;6.15;;
53309;SDS011;39197;53.200;5.792;2024-02-04T00:15:24;29.27;;;4.82;;
53309;SDS011;39197;53.200;5.792;2024-02-04T00:17:50;23.42;;;5.25;;
53309;SDS011;39197;53.200;5.792;2024-02-04T00:20:15;19.13;;;4.05;;
53309;SDS011;39197;53.200;5.792;2024-02-04T00:22:41;26.42;;;5.82;;
53309;SDS011;39197;53.200;5.792;2024-02-04T00:25:07;16.75;;;3.25;;
53309;SDS011;39197;53.200;5.792;2024-02-04T00:27:37;18.77;;;2.50;;
53309;SDS011;39197;53.200;5.792;2024-02-04T00:30:03;15.52;;;2.55;;
53309;SDS011;39197;53.200;5.792;2024-02-04T00:32:29;23.35;;;5.53;;
53309;SDS011;39197;53.200;5.792;2024-02-04T00:34:55;22.98;;;4.35;;
53309;SDS011;39197;53.200;5.792;2024-02-04T00:37:21;22.85;;;3.95;;
53309;SDS011;39197;53.200;5.792;2024-02-04T00:39:47;24.42;;;6.07;;
53309;SDS011;39197;53.200;5.792;2024-02-04T00:42:12;28.20;;;5.88;;
53309;SDS011;39197;53.200;5.792;2024-02-04T00:44:38;22.75;;;3.58;;
53309;SDS011;39197;53.200;5.792;2024-02-04T00:47:03;22.73;;;5.15;;
53309;SDS011;39197;53.200;5.792;2024-02-04T00:49:29;20.98;;;4.80;;
53309;SDS011;39197;53.200;5.792;2024-02-04T00:51:54;22.65;;;4.55;;
53309;SDS011;39197;53.200;5.792;2024-02-04T00:54:20;26.02;;;6.13;;
53309;SDS011;39197;53.200;5.792;2024-02-04T00:56:46;25.88;;;5.13;;
53309;SDS011;39197;53.200;5.792;2024-02-04T00:59:11;34.00;;;5.95;;
53309;SDS011;39197;53.200;5.792;2024-02-04T01:01:37;20.27;;;3.28;;
53309;SDS011;39197;53.200;5.792;2024-02-04T01:04:03;21.13;;;4.95;;
53309;SDS011;39197;53.200;5.792;2024-02-04T01:06:29;19.52;;;3.63;;
53309;SDS011;39197;53.200;5.792;2024-02-04T01:08:58;24.60;;;4.90;;
53309;SDS011;39197;53.200;5.792;2024-02-04T01:11:23;21.33;;;3.13;;
53309;SDS011;39197;53.200;5.792;2024-02-04T01:13:49;22.42;;;4.22;;
53309;SDS011;39197;53.200;5.792;2024-02-04T01:16:14;17.58;;;5.20;;
53309;SDS011;39197;53.200;5.792;2024-02-04T01:18:40;18.35;;;2.67;;
53309;SDS011;39197;53.200;5.792;2024-02-04T01:21:06;16.00;;;2.05;;
53309;SDS011;39197;53.200;5.792;2024-02-04T01:23:33;15.80;;;2.38;;
53309;SDS011;39197;53.200;5.792;2024-02-04T01:25:59;22.23;;;3.80;;
53309;SDS011;39197;53.200;5.792;2024-02-04T01:28:24;18.80;;;2.80;;
53309;SDS011;39197;53.200;5.792;2024-02-04T01:30:50;26.08;;;4.05;;
53309;SDS011;39197;53.200;5.792;2024-02-04T01:33:16;21.88;;;2.80;;
53309;SDS011;39197;53.200;5.792;2024-02-04T01:35:41;16.17;;;2.55;;
53309;SDS011;39197;53.200;5.792;2024-02-04T01:38:07;13.02;;;1.77;;
53309;SDS011;39197;53.200;5.792;2024-02-04T01:40:33;20.38;;;2.80;;
53309;SDS011;39197;53.200;5.792;2024-02-04T01:42:58;24.38;;;2.45;;
53309;SDS011;39197;53.200;5.792;2024-02-04T01:45:24;14.80;;;2.20;;
53309;SDS011;39197;53.200;5.792;2024-02-04T01:47:50;6.75;;;0.93;;
53309;SDS011;39197;53.200;5.792;2024-02-04T01:50:15;18.67;;;1.85;;
53309;SDS011;39197;53.200;5.792;2024-02-04T01:52:42;20.98;;;2.63;;
53309;SDS011;39197;53.200;5.792;2024-02-04T01:55:08;15.00;;;2.13;;
53309;SDS011;39197;53.200;5.792;2024-02-04T01:57:34;16.75;;;2.42;;
53309;SDS011;39197;53.200;5.792;2024-02-04T02:00:00;19.17;;;2.55;;
53309;SDS011;39197;53.200;5.792;2024-02-04T02:02:26;15.50;;;2.35;;
53309;SDS011;39197;53.200;5.792;2024-02-04T02:04:51;15.18;;;1.77;;
53309;SDS011;39197;53.200;5.792;2024-02-04T02:07:17;17.85;;;2.63;;
53309;SDS011;39197;53.200;5.792;2024-02-04T02:09:47;16.67;;;3.47;;
53309;SDS011;39197;53.200;5.792;2024-02-04T02:12:25;14.43;;;2.47;;
53309;SDS011;39197;53.200;5.792;2024-02-04T02:15:05;17.90;;;2.35;;
53309;SDS011;39197;53.200;5.792;2024-02-04T02:17:47;15.85;;;2.55;;
53309;SDS011;39197;53.200;5.792;2024-02-04T02:20:27;26.02;;;3.83;;
53309;SDS011;39197;53.200;5.792;2024-02-04T02:23:07;28.85;;;3.58;;
53309;SDS011;39197;53.200;5.792;2024-02-04T02:25:39;17.20;;;3.60;;
53309;SDS011;39197;53.200;5.792;2024-02-04T02:28:05;25.15;;;4.47;;
53309;SDS011;39197;53.200;5.792;2024-02-04T02:30:32;24.98;;;4.65;;
53309;SDS011;39197;53.200;5.792;2024-02-04T02:32:58;28.10;;;5.45;;
53309;SDS011;39197;53.200;5.792;2024-02-04T02:35:25;25.35;;;4.63;;
53309;SDS011;39197;53.200;5.792;2024-02-04T02:37:59;23.90;;;3.53;;
53309;SDS011;39197;53.200;5.792;2024-02-04T02:40:45;25.10;;;5.05;;
53309;SDS011;39197;53.200;5.792;2024-02-04T02:43:14;30.67;;;6.03;;
53309;SDS011;39197;53.200;5.792;2024-02-04T02:45:43;21.02;;;3.35;;
53309;SDS011;39197;53.200;5.792;2024-02-04T02:48:10;24.15;;;4.60;;
53309;SDS011;39197;53.200;5.792;2024-02-04T02:50:37;29.02;;;7.00;;
53309;SDS011;39197;53.200;5.792;2024-02-04T02:53:03;21.17;;;4.47;;
53309;SDS011;39197;53.200;5.792;2024-02-04T02:55:29;18.73;;;3.20;;
53309;SDS011;39197;53.200;5.792;2024-02-04T02:57:55;30.73;;;4.03;;
53309;SDS011;39197;53.200;5.792;2024-02-04T03:00:21;21.45;;;4.03;;
53309;SDS011;39197;53.200;5.792;2024-02-04T03:02:47;26.05;;;4.28;;
53309;SDS011;39197;53.200;5.792;2024-02-04T03:05:12;19.40;;;4.32;;
53309;SDS011;39197;53.200;5.792;2024-02-04T03:07:40;27.38;;;4.63;;
53309;SDS011;39197;53.200;5.792;2024-02-04T03:10:08;34.00;;;7.38;;
53309;SDS011;39197;53.200;5.792;2024-02-04T03:12:34;19.63;;;3.10;;
53309;SDS011;39197;53.200;5.792;2024-02-04T03:15:00;30.02;;;4.07;;
53309;SDS011;39197;53.200;5.792;2024-02-04T03:17:25;15.88;;;2.80;;
53309;SDS011;39197;53.200;5.792;2024-02-04T03:19:51;26.05;;;3.78;;
53309;SDS011;39197;53.200;5.792;2024-02-04T03:22:17;18.42;;;3.03;;
53309;SDS011;39197;53.200;5.792;2024-02-04T03:24:43;22.05;;;2.95;;
53309;SDS011;39197;53.200;5.792;2024-02-04T03:27:08;19.10;;;3.33;;
53309;SDS011;39197;53.200;5.792;2024-02-04T03:29:34;13.38;;;3.03;;
53309;SDS011;39197;53.200;5.792;2024-02-04T03:32:00;24.88;;;3.15;;
53309;SDS011;39197;53.200;5.792;2024-02-04T03:34:25;25.02;;;4.40;;
53309;SDS011;39197;53.200;5.792;2024-02-04T03:36:51;15.50;;;2.20;;
53309;SDS011;39197;53.200;5.792;2024-02-04T03:39:16;26.45;;;3.10;;
53309;SDS011;39197;53.200;5.792;2024-02-04T03:41:42;24.75;;;4.38;;
53309;SDS011;39197;53.200;5.792;2024-02-04T03:44:07;18.40;;;3.15;;
53309;SDS011;39197;53.200;5.792;2024-02-04T03:46:33;29.23;;;4.32;;
53309;SDS011;39197;53.200;5.792;2024-02-04T03:48:58;21.90;;;3.03;;
53309;SDS011;39197;53.200;5.792;2024-02-04T03:51:24;20.30;;;2.95;;
53309;SDS011;39197;53.200;5.792;2024-02-04T03:53:50;16.85;;;2.88;;
53309;SDS011;39197;53.200;5.792;2024-02-04T03:56:16;26.92;;;3.42;;
53309;SDS011;39197;53.200;5.792;2024-02-04T03:58:42;26.63;;;3.05;;
53309;SDS011;39197;53.200;5.792;2024-02-04T04:01:10;24.40;;;3.45;;
53309;SDS011;39197;53.200;5.792;2024-02-04T04:03:43;19.08;;;2.88;;
53309;SDS011;39197;53.200;5.792;2024-02-04T04:06:09;28.05;;;4.85;;
53309;SDS011;39197;53.200;5.792;2024-02-04T04:08:35;25.20;;;2.80;;
53309;SDS011;39197;53.200;5.792;2024-02-04T04:11:02;25.45;;;5.18;;
53309;SDS011;39197;53.200;5.792;2024-02-04T04:13:28;23.88;;;4.13;;
53309;SDS011;39197;53.200;5.792;2024-02-04T04:15:54;26.73;;;5.05;;
53309;SDS011;39197;53.200;5.792;2024-02-04T04:18:19;23.88;;;3.30;;
53309;SDS011;39197;53.200;5.792;2024-02-04T04:20:45;21.83;;;2.40;;
53309;SDS011;39197;53.200;5.792;2024-02-04T04:23:11;16.17;;;2.55;;
53309;SDS011;39197;53.200;5.792;2024-02-04T04:25:37;24.45;;;3.03;;
53309;SDS011;39197;53.200;5.792;2024-02-04T04:28:03;26.35;;;3.58;;
53309;SDS011;39197;53.200;5.792;2024-02-04T04:30:29;34.03;;;3.55;;
53309;SDS011;39197;53.200;5.792;2024-02-04T04:32:56;28.33;;;4.07;;
53309;SDS011;39197;53.200;5.792;2024-02-04T04:35:23;23.92;;;3.97;;
53309;SDS011;39197;53.200;5.792;2024-02-04T04:37:48;20.65;;;3.03;;
53309;SDS011;39197;53.200;5.792;2024-02-04T04:40:14;15.75;;;2.35;;
53309;SDS011;39197;53.200;5.792;2024-02-04T04:42:39;22.30;;;3.15;;
53309;SDS011;39197;53.200;5.792;2024-02-04T04:45:05;20.15;;;2.65;;
53309;SDS011;39197;53.200;5.792;2024-02-04T04:47:32;28.77;;;3.58;;
53309;SDS011;39197;53.200;5.792;2024-02-04T04:49:58;21.52;;;2.50;;
53309;SDS011;39197;53.200;5.792;2024-02-04T04:52:24;15.02;;;2.17;;
53309;SDS011;39197;53.200;5.792;2024-02-04T04:54:50;22.52;;;2.63;;
53309;SDS011;39197;53.200;5.792;2024-02-04T04:57:15;23.95;;;2.80;;
53309;SDS011;39197;53.200;5.792;2024-02-04T04:59:41;19.98;;;1.92;;
53309;SDS011;39197;53.200;5.792;2024-02-04T05:02:08;14.85;;;1.60;;
53309;SDS011;39197;53.200;5.792;2024-02-04T05:04:35;15.52;;;2.40;;
53309;SDS011;39197;53.200;5.792;2024-02-04T05:07:01;14.32;;;2.58;;
53309;SDS011;39197;53.200;5.792;2024-02-04T05:09:27;23.77;;;2.92;;
53309;SDS011;39197;53.200;5.792;2024-02-04T05:11:52;18.20;;;1.85;;
53309;SDS011;39197;53.200;5.792;2024-02-04T05:14:18;8.98;;;1.25;;
53309;SDS011;39197;53.200;5.792;2024-02-04T05:16:43;16.80;;;1.13;;
53309;SDS011;39197;53.200;5.792;2024-02-04T05:19:10;21.08;;;2.65;;
53309;SDS011;39197;53.200;5.792;2024-02-04T05:21:40;20.27;;;2.53;;
53309;SDS011;39197;53.200;5.792;2024-02-04T05:24:05;24.00;;;2.50;;
53309;SDS011;39197;53.200;5.792;2024-02-04T05:26:31;26.15;;;4.05;;
53309;SDS011;39197;53.200;5.792;2024-02-04T05:28:57;24.42;;;3.30;;
53309;SDS011;39197;53.200;5.792;2024-02-04T05:31:22;27.70;;;3.85;;
53309;SDS011;39197;53.200;5.792;2024-02-04T05:33:48;22.02;;;2.85;;
53309;SDS011;39197;53.200;5.792;2024-02-04T05:36:16;20.55;;;2.42;;
53309;SDS011;39197;53.200;5.792;2024-02-04T05:38:43;22.73;;;4.22;;
53309;SDS011;39197;53.200;5.792;2024-02-04T05:41:10;24.73;;;3.00;;
53309;SDS011;39197;53.200;5.792;2024-02-04T05:43:35;20.33;;;2.25;;
53309;SDS011;39197;53.200;5.792;2024-02-04T05:46:01;17.08;;;2.00;;
53309;SDS011;39197;53.200;5.792;2024-02-04T05:48:26;16.40;;;2.05;;
53309;SDS011;39197;53.200;5.792;2024-02-04T05:50:52;24.48;;;2.30;;
53309;SDS011;39197;53.200;5.792;2024-02-04T05:53:17;16.80;;;2.10;;
53309;SDS011;39197;53.200;5.792;2024-02-04T05:55:43;7.38;;;2.08;;
53309;SDS011;39197;53.200;5.792;2024-02-04T05:58:09;23.63;;;4.20;;
53309;SDS011;39197;53.200;5.792;2024-02-04T06:00:35;18.95;;;2.05;;
53309;SDS011;39197;53.200;5.792;2024-02-04T06:03:01;14.00;;;1.52;;
53309;SDS011;39197;53.200;5.792;2024-02-04T06:05:27;22.25;;;3.50;;
53309;SDS011;39197;53.200;5.792;2024-02-04T06:07:52;20.17;;;2.67;;
53309;SDS011;39197;53.200;5.792;2024-02-04T06:10:18;19.95;;;2.90;;
53309;SDS011;39197;53.200;5.792;2024-02-04T06:12:43;25.83;;;3.00;;
53309;SDS011;39197;53.200;5.792;2024-02-04T06:15:13;27.10;;;3.92;;
53309;SDS011;39197;53.200;5.792;2024-02-04T06:17:40;26.90;;;2.30;;
53309;SDS011;39197;53.200;5.792;2024-02-04T06:20:06;19.92;;;3.13;;
53309;SDS011;39197;53.200;5.792;2024-02-04T06:22:33;16.63;;;1.92;;
53309;SDS011;39197;53.200;5.792;2024-02-04T06:24:59;21.70;;;3.38;;
53309;SDS011;39197;53.200;5.792;2024-02-04T06:27:25;13.23;;;1.63;;
53309;SDS011;39197;53.200;5.792;2024-02-04T06:29:50;17.02;;;2.03;;
53309;SDS011;39197;53.200;5.792;2024-02-04T06:32:16;23.48;;;3.15;;
53309;SDS011;39197;53.200;5.792;2024-02-04T06:34:45;19.90;;;2.90;;
53309;SDS011;39197;53.200;5.792;2024-02-04T06:37:11;19.02;;;2.45;;
53309;SDS011;39197;53.200;5.792;2024-02-04T06:39:36;18.23;;;2.70;;
53309;SDS011;39197;53.200;5.792;2024-02-04T06:42:02;17.50;;;2.65;;
53309;SDS011;39197;53.200;5.792;2024-02-04T06:44:28;17.52;;;2.50;;
53309;SDS011;39197;53.200;5.792;2024-02-04T06:46:54;26.00;;;3.85;;
53309;SDS011;39197;53.200;5.792;2024-02-04T06:49:20;18.10;;;3.10;;
53309;SDS011;39197;53.200;5.792;2024-02-04T06:51:45;24.27;;;3.22;;
53309;SDS011;39197;53.200;5.792;2024-02-04T06:54:12;23.23;;;2.88;;
53309;SDS011;39197;53.200;5.792;2024-02-04T06:56:38;23.60;;;2.60;;
53309;SDS011;39197;53.200;5.792;2024-02-04T06:59:04;25.42;;;3.70;;
53309;SDS011;39197;53.200;5.792;2024-02-04T07:01:30;34.85;;;5.75;;
53309;SDS011;39197;53.200;5.792;2024-02-04T07:03:55;18.45;;;2.22;;
53309;SDS011;39197;53.200;5.792;2024-02-04T07:06:21;21.58;;;2.70;;
53309;SDS011;39197;53.200;5.792;2024-02-04T07:08:47;17.73;;;2.42;;
53309;SDS011;39197;53.200;5.792;2024-02-04T07:11:12;24.60;;;2.83;;
53309;SDS011;39197;53.200;5.792;2024-02-04T07:13:38;25.73;;;3.17;;
53309;SDS011;39197;53.200;5.792;2024-02-04T07:16:03;16.88;;;1.70;;
53309;SDS011;39197;53.200;5.792;2024-02-04T07:18:29;27.95;;;3.47;;
53309;SDS011;39197;53.200;5.792;2024-02-04T07:20:56;27.13;;;3.60;;
53309;SDS011;39197;53.200;5.792;2024-02-04T07:23:21;13.00;;;1.50;;
53309;SDS011;39197;53.200;5.792;2024-02-04T07:25:47;17.50;;;1.95;;
53309;SDS011;39197;53.200;5.792;2024-02-04T07:28:13;19.73;;;3.08;;
53309;SDS011;39197;53.200;5.792;2024-02-04T07:30:38;23.38;;;2.70;;
53309;SDS011;39197;53.200;5.792;2024-02-04T07:33:04;15.05;;;3.25;;
53309;SDS011;39197;53.200;5.792;2024-02-04T07:35:29;14.70;;;1.85;;
53309;SDS011;39197;53.200;5.792;2024-02-04T07:37:56;13.05;;;2.28;;
53309;SDS011;39197;53.200;5.792;2024-02-04T07:40:22;16.77;;;2.50;;
53309;SDS011;39197;53.200;5.792;2024-02-04T07:42:47;17.20;;;1.92;;
53309;SDS011;39197;53.200;5.792;2024-02-04T07:45:13;19.60;;;2.38;;
53309;SDS011;39197;53.200;5.792;2024-02-04T07:47:38;21.67;;;3.55;;
53309;SDS011;39197;53.200;5.792;2024-02-04T07:50:04;26.15;;;3.35;;
53309;SDS011;39197;53.200;5.792;2024-02-04T07:52:30;18.95;;;2.95;;
53309;SDS011;39197;53.200;5.792;2024-02-04T07:54:56;11.63;;;1.80;;
53309;SDS011;39197;53.200;5.792;2024-02-04T07:57:21;30.60;;;3.78;;
53309;SDS011;39197;53.200;5.792;2024-02-04T07:59:47;24.80;;;3.65;;
53309;SDS011;39197;53.200;5.792;2024-02-04T08:02:12;29.60;;;4.03;;
53309;SDS011;39197;53.200;5.792;2024-02-04T08:04:41;22.92;;;3.92;;
53309;SDS011;39197;53.200;5.792;2024-02-04T08:07:07;19.02;;;2.67;;
53309;SDS011;39197;53.200;5.792;2024-02-04T08:09:33;25.98;;;3.35;;
53309;SDS011;39197;53.200;5.792;2024-02-04T08:11:59;17.15;;;2.40;;
53309;SDS011;39197;53.200;5.792;2024-02-04T08:14:24;17.08;;;2.38;;
53309;SDS011;39197;53.200;5.792;2024-02-04T08:16:50;14.82;;;2.30;;
53309;SDS011;39197;53.200;5.792;2024-02-04T08:19:16;30.13;;;3.42;;
53309;SDS011;39197;53.200;5.792;2024-02-04T08:21:41;22.05;;;3.15;;
53309;SDS011;39197;53.200;5.792;2024-02-04T08:24:07;22.13;;;3.55;;
53309;SDS011;39197;53.200;5.792;2024-02-04T08:26:32;17.00;;;2.78;;
53309;SDS011;39197;53.200;5.792;2024-02-04T08:28:59;17.88;;;2.28;;
53309;SDS011;39197;53.200;5.792;2024-02-04T08:31:24;27.65;;;2.95;;
53309;SDS011;39197;53.200;5.792;2024-02-04T08:33:50;15.10;;;2.88;;
53309;SDS011;39197;53.200;5.792;2024-02-04T08:36:17;24.00;;;3.65;;
53309;SDS011;39197;53.200;5.792;2024-02-04T08:38:43;19.40;;;3.13;;
53309;SDS011;39197;53.200;5.792;2024-02-04T08:41:09;20.70;;;3.35;;
53309;SDS011;39197;53.200;5.792;2024-02-04T08:43:34;21.27;;;2.47;;
53309;SDS011;39197;53.200;5.792;2024-02-04T08:46:00;19.17;;;2.70;;
53309;SDS011;39197;53.200;5.792;2024-02-04T08:48:25;21.48;;;2.50;;
53309;SDS011;39197;53.200;5.792;2024-02-04T08:50:51;13.48;;;1.70;;
53309;SDS011;39197;53.200;5.792;2024-02-04T08:53:19;18.25;;;2.42;;
53309;SDS011;39197;53.200;5.792;2024-02-04T08:55:44;19.35;;;2.58;;
53309;SDS011;39197;53.200;5.792;2024-02-04T08:58:10;16.10;;;2.05;;
53309;SDS011;39197;53.200;5.792;2024-02-04T09:00:36;15.43;;;2.45;;
53309;SDS011;39197;53.200;5.792;2024-02-04T09:03:01;14.95;;;2.42;;
53309;SDS011;39197;53.200;5.792;2024-02-04T09:05:27;13.00;;;2.17;;
53309;SDS011;39197;53.200;5.792;2024-02-04T09:07:53;13.85;;;1.95;;
53309;SDS011;39197;53.200;5.792;2024-02-04T09:10:20;18.10;;;2.30;;
53309;SDS011;39197;53.200;5.792;2024-02-04T09:12:46;13.52;;;2.22;;
53309;SDS011;39197;53.200;5.792;2024-02-04T09:15:12;16.98;;;1.73;;
53309;SDS011;39197;53.200;5.792;2024-02-04T09:17:37;13.63;;;1.67;;
53309;SDS011;39197;53.200;5.792;2024-02-04T09:20:03;13.98;;;1.98;;
53309;SDS011;39197;53.200;5.792;2024-02-04T09:22:29;16.67;;;1.83;;
53309;SDS011;39197;53.200;5.792;2024-02-04T09:24:55;18.65;;;1.65;;
53309;SDS011;39197;53.200;5.792;2024-02-04T09:27:20;12.95;;;1.48;;
53309;SDS011;39197;53.200;5.792;2024-02-04T09:29:46;13.93;;;3.08;;
53309;SDS011;39197;53.200;5.792;2024-02-04T09:32:11;18.60;;;2.30;;
53309;SDS011;39197;53.200;5.792;2024-02-04T09:34:37;10.95;;;1.10;;
53309;SDS011;39197;53.200;5.792;2024-02-04T09:37:03;13.82;;;1.70;;
53309;SDS011;39197;53.200;5.792;2024-02-04T09:39:29;13.95;;;1.98;;
53309;SDS011;39197;53.200;5.792;2024-02-04T09:41:55;14.13;;;1.60;;
53309;SDS011;39197;53.200;5.792;2024-02-04T09:44:21;15.73;;;1.77;;
53309;SDS011;39197;53.200;5.792;2024-02-04T09:46:48;13.90;;;2.45;;
53309;SDS011;39197;53.200;5.792;2024-02-04T09:49:14;12.68;;;1.40;;
53309;SDS011;39197;53.200;5.792;2024-02-04T09:51:40;8.00;;;1.10;;
53309;SDS011;39197;53.200;5.792;2024-02-04T09:54:06;13.60;;;2.83;;
53309;SDS011;39197;53.200;5.792;2024-02-04T09:56:34;15.05;;;2.00;;
53309;SDS011;39197;53.200;5.792;2024-02-04T09:59:02;11.98;;;2.08;;
53309;SDS011;39197;53.200;5.792;2024-02-04T10:01:28;10.98;;;1.35;;
53309;SDS011;39197;53.200;5.792;2024-02-04T10:03:53;16.65;;;1.70;;
53309;SDS011;39197;53.200;5.792;2024-02-04T10:06:19;14.32;;;2.97;;
53309;SDS011;39197;53.200;5.792;2024-02-04T10:08:45;13.63;;;1.77;;
53309;SDS011;39197;53.200;5.792;2024-02-04T10:11:11;13.40;;;1.77;;
53309;SDS011;39197;53.200;5.792;2024-02-04T10:13:44;10.95;;;1.27;;
53309;SDS011;39197;53.200;5.792;2024-02-04T10:16:14;19.42;;;2.53;;
53309;SDS011;39197;53.200;5.792;2024-02-04T10:18:41;15.60;;;1.73;;
53309;SDS011;39197;53.200;5.792;2024-02-04T10:21:17;9.73;;;1.40;;
53309;SDS011;39197;53.200;5.792;2024-02-04T10:23:44;11.02;;;1.30;;
53309;SDS011;39197;53.200;5.792;2024-02-04T10:26:10;13.90;;;1.48;;
53309;SDS011;39197;53.200;5.792;2024-02-04T10:28:37;10.93;;;1.65;;
53309;SDS011;39197;53.200;5.792;2024-02-04T10:31:03;7.13;;;1.20;;
53309;SDS011;39197;53.200;5.792;2024-02-04T10:33:31;11.98;;;1.80;;
53309;SDS011;39197;53.200;5.792;2024-02-04T10:35:57;10.93;;;1.63;;
53309;SDS011;39197;53.200;5.792;2024-02-04T10:38:23;11.05;;;1.30;;
53309;SDS011;39197;53.200;5.792;2024-02-04T10:40:50;7.50;;;1.13;;
53309;SDS011;39197;53.200;5.792;2024-02-04T10:43:19;13.73;;;1.90;;
53309;SDS011;39197;53.200;5.792;2024-02-04T10:45:46;15.00;;;1.42;;
53309;SDS011;39197;53.200;5.792;2024-02-04T10:48:12;9.00;;;1.25;;
53309;SDS011;39197;53.200;5.792;2024-02-04T10:50:41;9.57;;;1.13;;
53309;SDS011;39197;53.200;5.792;2024-02-04T10:53:11;13.15;;;1.70;;
53309;SDS011;39197;53.200;5.792;2024-02-04T10:55:43;9.73;;;0.88;;
53309;SDS011;39197;53.200;5.792;2024-02-04T10:58:12;18.55;;;2.33;;
53309;SDS011;39197;53.200;5.792;2024-02-04T11:00:39;13.27;;;1.77;;
53309;SDS011;39197;53.200;5.792;2024-02-04T11:03:05;9.60;;;1.20;;
53309;SDS011;39197;53.200;5.792;2024-02-04T11:05:32;15.43;;;2.15;;
53309;SDS011;39197;53.200;5.792;2024-02-04T11:08:00;16.33;;;2.35;;
53309;SDS011;39197;53.200;5.792;2024-02-04T11:10:29;8.65;;;1.42;;
53309;SDS011;39197;53.200;5.792;2024-02-04T11:12:56;12.07;;;1.83;;
53309;SDS011;39197;53.200;5.792;2024-02-04T11:15:23;12.07;;;1.42;;
53309;SDS011;39197;53.200;5.792;2024-02-04T11:18:05;13.20;;;2.67;;
53309;SDS011;39197;53.200;5.792;2024-02-04T11:21:19;10.48;;;1.92;;
53309;SDS011;39197;53.200;5.792;2024-02-04T11:27:00;13.10;;;2.03;;
53309;SDS011;39197;53.200;5.792;2024-02-04T11:29:26;14.65;;;1.45;;
53309;SDS011;39197;53.200;5.792;2024-02-04T11:31:52;12.23;;;1.20;;
53309;SDS011;39197;53.200;5.792;2024-02-04T11:34:18;12.20;;;1.52;;
53309;SDS011;39197;53.200;5.792;2024-02-04T11:36:44;10.43;;;1.77;;
53309;SDS011;39197;53.200;5.792;2024-02-04T11:39:13;11.23;;;1.33;;
53309;SDS011;39197;53.200;5.792;2024-02-04T11:41:46;7.88;;;0.93;;
53309;SDS011;39197;53.200;5.792;2024-02-04T11:44:12;8.85;;;1.05;;
53309;SDS011;39197;53.200;5.792;2024-02-04T11:49:17;11.00;;;1.70;;
53309;SDS011;39197;53.200;5.792;2024-02-04T11:51:45;8.18;;;0.90;;
53309;SDS011;39197;53.200;5.792;2024-02-04T11:54:16;12.13;;;2.80;;
53309;SDS011;39197;53.200;5.792;2024-02-04T11:56:44;6.18;;;0.88;;
53309;SDS011;39197;53.200;5.792;2024-02-04T11:59:11;7.90;;;1.20;;
53309;SDS011;39197;53.200;5.792;2024-02-04T12:01:39;8.02;;;1.20;;
53309;SDS011;39197;53.200;5.792;2024-02-04T12:04:08;8.85;;;0.90;;
53309;SDS011;39197;53.200;5.792;2024-02-04T12:06:40;14.45;;;1.08;;
53309;SDS011;39197;53.200;5.792;2024-02-04T12:09:10;14.52;;;1.42;;
53309;SDS011;39197;53.200;5.792;2024-02-04T12:11:36;7.80;;;0.85;;
53309;SDS011;39197;53.200;5.792;2024-02-04T12:14:03;7.63;;;0.85;;
53309;SDS011;39197;53.200;5.792;2024-02-04T12:16:33;12.80;;;1.48;;
53309;SDS011;39197;53.200;5.792;2024-02-04T12:19:00;14.48;;;1.63;;
53309;SDS011;39197;53.200;5.792;2024-02-04T12:21:29;11.27;;;0.77;;
53309;SDS011;39197;53.200;5.792;2024-02-04T12:23:55;14.02;;;1.30;;
53309;SDS011;39197;53.200;5.792;2024-02-04T12:26:22;10.68;;;1.30;;
53309;SDS011;39197;53.200;5.792;2024-02-04T12:28:48;14.18;;;1.02;;
53309;SDS011;39197;53.200;5.792;2024-02-04T12:31:21;14.52;;;1.65;;
53309;SDS011;39197;53.200;5.792;2024-02-04T12:33:51;11.07;;;1.55;;
53309;SDS011;39197;53.200;5.792;2024-02-04T12:36:22;9.30;;;1.50;;
53309;SDS011;39197;53.200;5.792;2024-02-04T12:38:59;13.82;;;1.17;;
53309;SDS011;39197;53.200;5.792;2024-02-04T12:41:26;12.35;;;1.75;;
53309;SDS011;39197;53.200;5.792;2024-02-04T12:43:56;13.07;;;1.10;;
53309;SDS011;39197;53.200;5.792;2024-02-04T12:46:24;10.15;;;1.95;;
53309;SDS011;39197;53.200;5.792;2024-02-04T12:48:53;9.95;;;1.98;;
53309;SDS011;39197;53.200;5.792;2024-02-04T12:51:37;9.77;;;1.40;;
53309;SDS011;39197;53.200;5.792;2024-02-04T12:54:07;6.55;;;0.60;;
53309;SDS011;39197;53.200;5.792;2024-02-04T12:56:47;8.32;;;1.00;;
53309;SDS011;39197;53.200;5.792;2024-02-04T12:59:27;14.07;;;1.48;;
53309;SDS011;39197;53.200;5.792;2024-02-04T13:01:54;12.63;;;2.05;;
53309;SDS011;39197;53.200;5.792;2024-02-04T13:04:21;5.82;;;0.88;;
53309;SDS011;39197;53.200;5.792;2024-02-04T13:06:48;9.15;;;0.90;;
53309;SDS011;39197;53.200;5.792;2024-02-04T13:09:15;11.93;;;1.58;;
53309;SDS011;39197;53.200;5.792;2024-02-04T13:11:41;8.27;;;1.38;;
53309;SDS011;39197;53.200;5.792;2024-02-04T13:14:08;10.00;;;1.42;;
53309;SDS011;39197;53.200;5.792;2024-02-04T13:16:35;10.60;;;1.35;;
53309;SDS011;39197;53.200;5.792;2024-02-04T13:19:02;10.90;;;0.95;;
53309;SDS011;39197;53.200;5.792;2024-02-04T13:21:28;11.95;;;1.77;;
53309;SDS011;39197;53.200;5.792;2024-02-04T13:23:54;9.50;;;0.98;;
53309;SDS011;39197;53.200;5.792;2024-02-04T13:26:20;8.38;;;1.00;;
53309;SDS011;39197;53.200;5.792;2024-02-04T13:28:46;11.32;;;1.45;;
53309;SDS011;39197;53.200;5.792;2024-02-04T13:31:12;5.45;;;0.88;;
53309;SDS011;39197;53.200;5.792;2024-02-04T13:33:38;9.63;;;0.93;;
53309;SDS011;39197;53.200;5.792;2024-02-04T13:36:04;13.50;;;1.98;;
53309;SDS011;39197;53.200;5.792;2024-02-04T13:38:30;14.13;;;1.58;;
53309;SDS011;39197;53.200;5.792;2024-02-04T13:40:56;11.18;;;1.55;;
53309;SDS011;39197;53.200;5.792;2024-02-04T13:43:22;13.57;;;1.48;;
53309;SDS011;39197;53.200;5.792;2024-02-04T13:45:47;14.27;;;2.35;;
53309;SDS011;39197;53.200;5.792;2024-02-04T13:48:13;11.68;;;1.23;;
53309;SDS011;39197;53.200;5.792;2024-02-04T13:50:38;8.77;;;1.45;;
53309;SDS011;39197;53.200;5.792;2024-02-04T13:53:04;9.52;;;1.30;;
53309;SDS011;39197;53.200;5.792;2024-02-04T13:55:30;13.70;;;1.27;;
53309;SDS011;39197;53.200;5.792;2024-02-04T13:57:55;10.32;;;1.10;;
53309;SDS011;39197;53.200;5.792;2024-02-04T14:00:21;8.48;;;1.58;;
53309;SDS011;39197;53.200;5.792;2024-02-04T14:02:46;8.75;;;1.58;;
53309;SDS011;39197;53.200;5.792;2024-02-04T14:05:12;13.75;;;2.58;;
53309;SDS011;39197;53.200;5.792;2024-02-04T14:07:38;13.63;;;1.80;;
53309;SDS011;39197;53.200;5.792;2024-02-04T14:10:04;10.50;;;1.38;;
53309;SDS011;39197;53.200;5.792;2024-02-04T14:12:29;8.02;;;1.90;;
53309;SDS011;39197;53.200;5.792;2024-02-04T14:14:56;7.05;;;1.70;;
53309;SDS011;39197;53.200;5.792;2024-02-04T14:17:22;10.63;;;1.20;;
53309;SDS011;39197;53.200;5.792;2024-02-04T14:19:48;5.30;;;0.73;;
53309;SDS011;39197;53.200;5.792;2024-02-04T14:22:16;9.30;;;1.77;;
53309;SDS011;39197;53.200;5.792;2024-02-04T14:24:46;10.73;;;0.98;;
53309;SDS011;39197;53.200;5.792;2024-02-04T14:27:11;8.43;;;1.23;;
53309;SDS011;39197;53.200;5.792;2024-02-04T14:29:37;10.02;;;1.33;;
53309;SDS011;39197;53.200;5.792;2024-02-04T14:32:03;9.13;;;1.50;;
53309;SDS011;39197;53.200;5.792;2024-02-04T14:34:29;12.98;;;1.65;;
53309;SDS011;39197;53.200;5.792;2024-02-04T14:36:54;11.13;;;1.50;;
53309;SDS011;39197;53.200;5.792;2024-02-04T14:39:20;13.07;;;1.77;;